createdAt,value
2018-11-21T00:01:45.799Z,93.84
2018-11-21T00:04:34.935Z,93.81
2018-11-21T00:07:04.970Z,94.45
2018-11-21T00:09:35.081Z,94.07
2018-11-21T00:12:14.444Z,94.45
2018-11-21T00:14:44.542Z,94.45
2018-11-21T00:17:33.634Z,94.32
2018-11-21T00:20:22.701Z,94.10
2018-11-21T00:23:11.602Z,93.89
2018-11-21T00:25:42.950Z,93.61
2018-11-21T00:28:12.758Z,94.11
2018-11-21T00:30:42.806Z,93.96
2018-11-21T00:33:12.691Z,93.57
2018-11-21T00:35:44.865Z,93.35
2018-11-21T00:38:15.145Z,93.55
2018-11-21T00:41:13.197Z,94.06
2018-11-21T00:44:08.770Z,94.08
2018-11-21T00:46:39.608Z,93.19
2018-11-21T00:49:12.685Z,93.41
2018-11-21T00:52:01.806Z,93.58
2018-11-21T00:54:51.053Z,93.98
2018-11-21T00:57:40.320Z,94.33
2018-11-21T01:00:30.238Z,94.92
2018-11-21T01:03:00.475Z,95.50
2018-11-21T01:05:49.593Z,95.87
2018-11-21T01:08:38.691Z,96.24
2018-11-21T01:11:27.386Z,96.16
2018-11-21T01:14:16.626Z,95.74
2018-11-21T01:16:46.084Z,95.09
2018-11-21T01:19:34.857Z,94.87
2018-11-21T01:22:23.912Z,94.50
2018-11-21T01:24:53.921Z,94.33
2018-11-21T01:27:24.074Z,94.34
2018-11-21T01:30:13.188Z,94.21
2018-11-21T01:32:43.228Z,94.19
2018-11-21T01:35:32.919Z,93.90
2018-11-21T01:38:03.779Z,93.59
2018-11-21T01:40:53.241Z,93.40
2018-11-21T01:43:42.560Z,93.12
2018-11-21T01:49:03.549Z,93.58
2018-11-21T01:51:33.797Z,93.78
2018-11-21T01:54:22.892Z,94.29
2018-11-21T01:56:52.364Z,94.45
2018-11-21T01:59:41.060Z,94.58
2018-11-21T02:02:31.022Z,93.87
2018-11-21T02:05:20.411Z,93.28
2018-11-21T02:08:09.439Z,93.72
2018-11-21T02:10:39.559Z,93.82
2018-11-21T02:13:28.622Z,94.71
2018-11-21T02:16:17.354Z,94.79
2018-11-21T02:19:06.410Z,94.86
2018-11-21T02:21:55.828Z,94.94
2018-11-21T02:24:44.546Z,95.36
2018-11-21T02:27:34.838Z,95.62
2018-11-21T02:30:04.837Z,94.78
2018-11-21T02:32:47.565Z,94.62
2018-11-21T02:35:17.531Z,94.59
2018-11-21T02:37:47.010Z,94.70
2018-11-21T02:40:36.017Z,94.45
2018-11-21T02:43:24.742Z,93.72
2018-11-21T02:45:54.795Z,93.38
2018-11-21T02:48:24.639Z,93.60
2018-11-21T02:50:54.426Z,93.60
2018-11-21T02:53:26.084Z,93.96
2018-11-21T02:56:15.343Z,93.76
2018-11-21T02:58:45.390Z,93.97
2018-11-21T03:01:15.680Z,93.46
2018-11-21T03:03:45.401Z,93.49
2018-11-21T03:06:34.480Z,93.30
2018-11-21T03:09:23.831Z,93.19
2018-11-21T03:11:53.325Z,93.26
2018-11-21T03:14:23.608Z,93.20
2018-11-21T03:16:53.351Z,93.47
2018-11-21T03:19:23.094Z,93.57
2018-11-21T03:21:53.653Z,93.80
2018-11-21T03:24:23.713Z,93.60
2018-11-21T03:26:53.431Z,93.49
2018-11-21T03:29:23.614Z,93.62
2018-11-21T03:31:53.577Z,93.93
2018-11-21T03:34:42.314Z,94.08
2018-11-21T03:37:31.455Z,93.84
2018-11-21T03:40:20.485Z,93.92
2018-11-21T03:43:09.183Z,93.98
2018-11-21T03:45:58.239Z,93.78
2018-11-21T03:48:27.869Z,93.83
2018-11-21T03:50:57.554Z,93.81
2018-11-21T03:53:43.646Z,93.51
2018-11-21T03:56:32.415Z,93.33
2018-11-21T03:59:02.264Z,92.91
2018-11-21T04:01:33.430Z,93.65
2018-11-21T04:04:03.654Z,93.53
2018-11-21T04:06:52.692Z,93.32
2018-11-21T04:09:42.035Z,93.05
2018-11-21T04:12:12.324Z,93.06
2018-11-21T04:15:01.076Z,92.52
2018-11-21T04:17:50.073Z,92.61
2018-11-21T04:20:19.605Z,92.47
2018-11-21T04:23:09.102Z,92.15
2018-11-21T04:25:39.039Z,92.61
2018-11-21T04:28:09.379Z,92.67
2018-11-21T04:30:39.279Z,92.86
2018-11-21T04:33:28.716Z,92.99
2018-11-21T04:35:59.177Z,93.06
2018-11-21T04:38:29.681Z,93.01
2018-11-21T04:40:59.457Z,93.16
2018-11-21T04:43:28.962Z,93.31
2018-11-21T04:46:03.542Z,93.81
2018-11-21T04:48:33.771Z,93.69
2018-11-21T04:51:03.984Z,93.49
2018-11-21T04:53:52.706Z,93.53
2018-11-21T04:56:41.751Z,92.25
2018-11-21T04:59:55.871Z,92.73
2018-11-21T05:02:25.856Z,93.21
2018-11-21T05:04:56.067Z,93.43
2018-11-21T05:07:27.282Z,93.43
2018-11-21T05:10:15.902Z,93.02
2018-11-21T05:12:45.927Z,92.77
2018-11-21T05:15:16.695Z,92.87
2018-11-21T05:17:51.400Z,93.13
2018-11-21T05:20:21.643Z,93.57
2018-11-21T05:23:11.109Z,94.05
2018-11-21T05:25:41.423Z,94.14
2018-11-21T05:28:30.886Z,94.39
2018-11-21T05:34:16.005Z,94.62
2018-11-21T05:37:05.466Z,94.50
2018-11-21T05:39:54.188Z,93.88
2018-11-21T05:42:44.110Z,93.06
2018-11-21T05:45:34.610Z,93.56
2018-11-21T05:48:24.594Z,93.47
2018-11-21T05:51:13.656Z,93.46
2018-11-21T05:54:17.996Z,93.13
2018-11-21T05:57:09.007Z,93.21
2018-11-21T05:59:39.703Z,93.10
2018-11-21T06:02:10.134Z,92.40
2018-11-21T06:04:59.121Z,92.41
2018-11-21T06:07:48.576Z,92.88
2018-11-21T06:10:27.539Z,93.44
2018-11-21T06:13:14.223Z,93.59
2018-11-21T06:16:04.971Z,93.42
2018-11-21T06:18:34.811Z,93.26
2018-11-21T06:21:04.594Z,93.25
2018-11-21T06:23:53.759Z,96.30
2018-11-21T06:26:25.508Z,94.19
2018-11-21T06:29:14.511Z,93.30
2018-11-21T06:31:44.404Z,92.58
2018-11-21T06:34:33.509Z,91.99
2018-11-21T06:37:23.630Z,92.12
2018-11-21T06:39:53.421Z,91.77
2018-11-21T06:42:52.731Z,91.75
2018-11-21T06:45:24.297Z,92.23
2018-11-21T06:47:54.539Z,93.00
2018-11-21T06:50:23.938Z,93.21
2018-11-21T06:52:54.461Z,93.09
2018-11-21T06:55:24.315Z,92.69
2018-11-21T06:58:16.005Z,92.45
2018-11-21T07:00:45.571Z,92.83
2018-11-21T07:03:34.634Z,92.53
2018-11-21T07:06:04.813Z,92.17
2018-11-21T07:08:53.874Z,91.93
2018-11-21T07:11:23.320Z,91.59
2018-11-21T07:13:53.400Z,91.18
2018-11-21T07:16:42.798Z,90.71
2018-11-21T07:19:12.186Z,90.62
2018-11-21T07:21:42.201Z,90.50
2018-11-21T07:24:11.877Z,90.67
2018-11-21T07:27:00.888Z,91.17
2018-11-21T07:29:34.727Z,91.19
2018-11-21T07:32:00.030Z,91.33
2018-11-21T07:34:49.073Z,91.36
2018-11-21T07:37:19.310Z,90.95
2018-11-21T07:40:09.050Z,90.45
2018-11-21T07:42:39.019Z,90.03
2018-11-21T07:45:27.840Z,89.18
2018-11-21T07:47:57.749Z,88.79
2018-11-21T07:50:46.520Z,88.75
2018-11-21T07:53:16.371Z,88.66
2018-11-21T07:55:46.530Z,88.81
2018-11-21T07:58:38.066Z,88.32
2018-11-21T08:01:15.007Z,88.45
2018-11-21T08:04:22.949Z,88.34
2018-11-21T08:06:56.865Z,88.25
2018-11-21T08:09:47.514Z,88.31
2018-11-21T08:12:36.279Z,88.53
2018-11-21T08:15:46.920Z,88.55
2018-11-21T08:18:53.461Z,88.46
2018-11-21T08:22:01.230Z,88.15
2018-11-21T08:24:50.184Z,87.94
2018-11-21T08:27:58.117Z,87.76
2018-11-21T08:30:47.384Z,87.55
2018-11-21T08:33:17.422Z,87.96
2018-11-21T08:36:06.905Z,88.08
2018-11-21T08:38:36.972Z,88.01
2018-11-21T08:41:25.869Z,87.97
2018-11-21T08:44:14.925Z,88.12
2018-11-21T08:46:44.270Z,88.43
2018-11-21T08:49:33.238Z,88.60
2018-11-21T08:52:22.010Z,87.95
2018-11-21T08:55:12.036Z,86.87
2018-11-21T08:58:00.787Z,86.64
2018-11-21T09:00:51.154Z,86.98
2018-11-21T09:03:40.141Z,87.06
2018-11-21T09:06:29.107Z,86.45
2018-11-21T09:09:17.853Z,86.37
2018-11-21T09:11:47.240Z,86.39
2018-11-21T09:14:36.663Z,87.04
2018-11-21T09:17:07.375Z,86.67
2018-11-21T09:19:37.334Z,86.27
2018-11-21T09:22:26.500Z,85.70
2018-11-21T09:25:15.095Z,85.87
2018-11-21T09:28:04.162Z,85.18
2018-11-21T09:30:53.196Z,84.80
2018-11-21T09:33:42.476Z,84.34
2018-11-21T09:36:12.416Z,84.29
2018-11-21T09:38:42.127Z,84.07
2018-11-21T09:41:12.117Z,83.91
2018-11-21T09:44:01.246Z,83.99
2018-11-21T09:46:31.272Z,83.70
2018-11-21T09:49:01.049Z,83.36
2018-11-21T09:51:50.402Z,83.28
2018-11-21T09:54:39.901Z,83.05
2018-11-21T09:57:29.056Z,83.10
2018-11-21T10:00:40.087Z,82.91
2018-11-21T10:03:13.084Z,82.39
2018-11-21T10:08:38.589Z,82.90
2018-11-21T10:11:27.961Z,82.44
2018-11-21T10:14:16.608Z,82.59
2018-11-21T10:16:46.476Z,83.06
2018-11-21T10:33:16.166Z,83.46
2018-11-21T10:35:52.053Z,83.49
2018-11-21T10:39:00.145Z,83.17
2018-11-21T10:41:29.757Z,83.22
2018-11-21T10:44:01.544Z,82.22
2018-11-21T10:46:31.031Z,81.87
2018-11-21T10:49:19.952Z,82.00
2018-11-21T10:51:49.563Z,82.27
2018-11-21T10:54:19.318Z,82.86
2018-11-21T10:56:49.801Z,82.75
2018-11-21T10:59:19.715Z,82.94
2018-11-21T11:02:27.602Z,83.40
2018-11-21T11:05:33.427Z,83.14
2018-11-21T11:08:22.114Z,83.18
2018-11-21T11:11:29.913Z,82.50
2018-11-21T11:14:22.002Z,82.30
2018-11-21T11:17:10.571Z,81.59
2018-11-21T11:20:14.338Z,81.83
2018-11-21T11:23:19.941Z,82.07
2018-11-21T11:26:06.982Z,82.03
2018-11-21T11:28:58.518Z,81.83
2018-11-21T11:31:47.067Z,81.26
2018-11-21T11:34:54.897Z,81.27
2018-11-21T11:37:43.514Z,80.56
2018-11-21T11:40:33.315Z,80.85
2018-11-21T11:43:44.209Z,80.85
2018-11-21T11:46:32.893Z,80.88
2018-11-21T11:49:40.757Z,80.98
2018-11-21T11:52:48.631Z,81.21
2018-11-21T11:55:37.184Z,81.69
2018-11-21T11:58:25.751Z,81.55
2018-11-21T12:01:39.326Z,81.83
2018-11-21T12:04:33.824Z,81.16
2018-11-21T12:07:41.971Z,81.15
2018-11-21T12:10:30.684Z,80.95
2018-11-21T12:13:38.840Z,80.81
2018-11-21T12:16:49.379Z,80.39
2018-11-21T12:19:26.323Z,80.06
2018-11-21T12:22:24.855Z,80.13
2018-11-21T12:25:13.393Z,79.77
2018-11-21T12:28:21.618Z,79.65
2018-11-21T12:31:10.205Z,79.68
2018-11-21T12:34:01.451Z,79.97
2018-11-21T12:36:50.043Z,79.76
2018-11-21T12:39:39.670Z,79.70
2018-11-21T12:42:28.182Z,78.94
2018-11-21T12:45:26.341Z,79.32
2018-11-21T12:48:27.363Z,78.97
2018-11-21T12:51:30.041Z,79.25
2018-11-21T12:54:18.522Z,79.60
2018-11-21T12:57:10.364Z,79.94
2018-11-21T13:00:18.127Z,80.17
2018-11-21T13:03:26.000Z,80.10
2018-11-21T13:06:14.549Z,80.34
2018-11-21T13:09:22.373Z,80.62
2018-11-21T13:12:11.248Z,80.78
2018-11-21T13:15:19.135Z,79.90
2018-11-21T13:18:27.039Z,79.54
2018-11-21T13:21:11.282Z,79.62
2018-11-21T13:24:19.378Z,79.59
2018-11-21T13:27:27.245Z,79.50
2018-11-21T13:30:15.872Z,79.50
2018-11-21T13:33:07.333Z,79.13
2018-11-21T13:36:15.182Z,79.62
2018-11-21T13:42:20.284Z,79.15
2018-11-21T13:45:28.161Z,79.55
2018-11-21T13:48:16.663Z,80.17
2018-11-21T13:51:05.206Z,80.10
2018-11-21T13:53:53.736Z,80.29
2018-11-21T13:56:23.362Z,80.84
2018-11-21T13:58:53.004Z,80.72
2018-11-21T14:01:42.219Z,80.41
2018-11-21T14:04:14.439Z,80.41
2018-11-21T14:07:03.884Z,80.58
2018-11-21T14:09:33.514Z,80.10
2018-11-21T14:12:22.727Z,80.09
2018-11-21T14:14:55.449Z,80.49
2018-11-21T14:17:42.903Z,80.73
2018-11-21T14:20:13.399Z,80.95
2018-11-21T14:23:02.301Z,81.05
2018-11-21T14:25:31.883Z,80.92
2018-11-21T14:28:21.041Z,80.52
2018-11-21T14:30:50.617Z,80.34
2018-11-21T14:33:20.302Z,80.87
2018-11-21T14:35:55.967Z,79.63
2018-11-21T14:38:38.962Z,79.78
2018-11-21T14:41:27.784Z,80.18
2018-11-21T14:44:16.718Z,80.43
2018-11-21T14:47:07.071Z,80.05
2018-11-21T14:49:57.811Z,80.91
2018-11-21T14:52:46.623Z,80.74
2018-11-21T14:55:16.194Z,80.71
2018-11-21T14:57:45.865Z,80.16
2018-11-21T15:00:35.006Z,80.73
2018-11-21T15:03:04.633Z,80.91
2018-11-21T15:05:53.674Z,81.04
2018-11-21T15:08:42.503Z,81.17
2018-11-21T15:11:12.074Z,81.30
2018-11-21T15:14:01.136Z,81.27
2018-11-21T15:17:08.948Z,81.54
2018-11-21T15:19:38.586Z,80.91
2018-11-21T15:22:08.129Z,80.91
2018-11-21T15:24:56.984Z,81.37
2018-11-21T15:27:46.024Z,81.36
2018-11-21T15:30:18.442Z,81.74
2018-11-21T15:32:48.132Z,81.97
2018-11-21T15:35:37.175Z,82.35
2018-11-21T15:38:27.092Z,82.73
2018-11-21T15:40:56.715Z,82.89
2018-11-21T15:43:45.736Z,82.51
2018-11-21T15:46:15.452Z,82.36
2018-11-21T15:49:04.332Z,82.54
2018-11-21T15:51:33.927Z,82.06
2018-11-21T15:54:03.520Z,82.01
2018-11-21T15:56:33.118Z,82.45
2018-11-21T15:59:02.567Z,82.23
2018-11-21T16:01:32.238Z,82.04
2018-11-21T16:04:01.790Z,82.14
2018-11-21T16:06:31.432Z,82.02
2018-11-21T16:09:01.066Z,82.23
2018-11-21T16:11:30.605Z,82.14
2018-11-21T16:14:00.207Z,82.55
2018-11-21T16:16:32.623Z,82.56
2018-11-21T16:19:21.515Z,82.49
2018-11-21T16:21:51.137Z,82.59
2018-11-21T16:24:20.745Z,82.07
2018-11-21T16:26:50.613Z,82.39
2018-11-21T16:29:39.506Z,82.61
2018-11-21T16:32:09.064Z,82.49
2018-11-21T16:34:57.952Z,82.47
2018-11-21T16:37:27.548Z,82.55
2018-11-21T16:39:57.107Z,82.21
2018-11-21T16:42:26.666Z,81.99
2018-11-21T16:44:56.224Z,81.95
2018-11-21T16:47:25.804Z,82.25
2018-11-21T16:49:55.368Z,81.59
2018-11-21T16:52:44.255Z,81.90
2018-11-21T16:55:33.183Z,81.74
2018-11-21T16:58:03.536Z,82.04
2018-11-21T17:00:35.549Z,81.96
2018-11-21T17:03:05.077Z,81.96
2018-11-21T17:05:34.670Z,81.68
